sensor_id;sensor_type;location;lat;lon;timestamp;temperature;humidity
32728;DHT22;55292;51.844;19.246;2022-11-13T00:04:12;7.40;99.90
32728;DHT22;55292;51.844;19.246;2022-11-13T00:09:34;7.50;99.90
32728;DHT22;55292;51.844;19.246;2022-11-13T00:14:55;7.50;99.90
32728;DHT22;55292;51.844;19.246;2022-11-13T00:20:17;7.50;99.90
32728;DHT22;55292;51.844;19.246;2022-11-13T00:25:38;7.50;99.90
32728;DHT22;55292;51.844;19.246;2022-11-13T00:31:01;7.50;99.90
32728;DHT22;55292;51.844;19.246;2022-11-13T00:36:24;7.50;99.90
32728;DHT22;55292;51.844;19.246;2022-11-13T00:41:46;7.50;99.90
32728;DHT22;55292;51.844;19.246;2022-11-13T00:47:07;7.50;99.90
32728;DHT22;55292;51.844;19.246;2022-11-13T00:52:28;7.50;99.90
32728;DHT22;55292;51.844;19.246;2022-11-13T00:57:49;7.50;99.90
32728;DHT22;55292;51.844;19.246;2022-11-13T01:03:11;7.40;99.90
32728;DHT22;55292;51.844;19.246;2022-11-13T01:08:32;7.40;99.90
32728;DHT22;55292;51.844;19.246;2022-11-13T01:13:53;7.40;99.90
32728;DHT22;55292;51.844;19.246;2022-11-13T01:19:14;7.40;99.90
32728;DHT22;55292;51.844;19.246;2022-11-13T01:24:35;7.50;99.90
32728;DHT22;55292;51.844;19.246;2022-11-13T01:29:58;7.40;99.90
32728;DHT22;55292;51.844;19.246;2022-11-13T01:35:19;7.40;99.90
32728;DHT22;55292;51.844;19.246;2022-11-13T01:40:45;7.20;99.90
32728;DHT22;55292;51.844;19.246;2022-11-13T01:46:18;7.10;99.90
32728;DHT22;55292;51.844;19.246;2022-11-13T01:51:52;7.00;99.90
32728;DHT22;55292;51.844;19.246;2022-11-13T01:57:15;7.00;99.90
32728;DHT22;55292;51.844;19.246;2022-11-13T02:02:37;7.10;99.90
32728;DHT22;55292;51.844;19.246;2022-11-13T02:07:59;7.30;99.90
32728;DHT22;55292;51.844;19.246;2022-11-13T02:13:20;7.30;99.90
32728;DHT22;55292;51.844;19.246;2022-11-13T02:18:42;7.40;99.90
32728;DHT22;55292;51.844;19.246;2022-11-13T02:24:23;7.40;99.90
32728;DHT22;55292;51.844;19.246;2022-11-13T02:29:45;7.30;99.90
32728;DHT22;55292;51.844;19.246;2022-11-13T02:35:07;7.30;99.90
32728;DHT22;55292;51.844;19.246;2022-11-13T02:40:29;7.30;99.90
32728;DHT22;55292;51.844;19.246;2022-11-13T02:45:51;7.20;99.90
32728;DHT22;55292;51.844;19.246;2022-11-13T02:51:12;7.30;99.90
32728;DHT22;55292;51.844;19.246;2022-11-13T02:56:34;7.30;99.90
32728;DHT22;55292;51.844;19.246;2022-11-13T03:01:55;7.30;99.90
32728;DHT22;55292;51.844;19.246;2022-11-13T03:07:16;7.30;99.90
32728;DHT22;55292;51.844;19.246;2022-11-13T03:12:37;7.30;99.90
32728;DHT22;55292;51.844;19.246;2022-11-13T03:18:04;7.20;99.90
32728;DHT22;55292;51.844;19.246;2022-11-13T03:23:27;7.20;99.90
32728;DHT22;55292;51.844;19.246;2022-11-13T03:28:48;7.20;99.90
32728;DHT22;55292;51.844;19.246;2022-11-13T03:34:09;7.10;99.90
32728;DHT22;55292;51.844;19.246;2022-11-13T03:39:31;7.10;99.90
32728;DHT22;55292;51.844;19.246;2022-11-13T03:44:52;7.20;99.90
32728;DHT22;55292;51.844;19.246;2022-11-13T03:50:14;7.10;99.90
32728;DHT22;55292;51.844;19.246;2022-11-13T03:55:35;6.80;99.90
32728;DHT22;55292;51.844;19.246;2022-11-13T04:00:57;6.80;99.90
32728;DHT22;55292;51.844;19.246;2022-11-13T04:06:18;6.90;99.90
32728;DHT22;55292;51.844;19.246;2022-11-13T04:11:39;6.90;99.90
32728;DHT22;55292;51.844;19.246;2022-11-13T04:17:00;6.80;99.90
32728;DHT22;55292;51.844;19.246;2022-11-13T04:22:21;7.00;99.90
32728;DHT22;55292;51.844;19.246;2022-11-13T04:27:43;7.00;99.90
32728;DHT22;55292;51.844;19.246;2022-11-13T04:33:04;7.00;99.90
32728;DHT22;55292;51.844;19.246;2022-11-13T04:38:26;7.10;99.90
32728;DHT22;55292;51.844;19.246;2022-11-13T04:43:48;7.00;99.90
32728;DHT22;55292;51.844;19.246;2022-11-13T04:49:09;7.00;99.90
32728;DHT22;55292;51.844;19.246;2022-11-13T04:54:30;7.10;99.90
32728;DHT22;55292;51.844;19.246;2022-11-13T04:59:51;7.00;99.90
32728;DHT22;55292;51.844;19.246;2022-11-13T05:05:13;7.00;99.90
32728;DHT22;55292;51.844;19.246;2022-11-13T05:10:34;7.00;99.90
32728;DHT22;55292;51.844;19.246;2022-11-13T05:16:03;7.00;99.90
32728;DHT22;55292;51.844;19.246;2022-11-13T05:21:24;7.00;99.90
32728;DHT22;55292;51.844;19.246;2022-11-13T05:26:45;6.90;99.90
32728;DHT22;55292;51.844;19.246;2022-11-13T05:32:07;6.90;99.90
32728;DHT22;55292;51.844;19.246;2022-11-13T05:37:28;6.90;99.90
32728;DHT22;55292;51.844;19.246;2022-11-13T05:42:49;7.00;99.90
32728;DHT22;55292;51.844;19.246;2022-11-13T05:48:12;7.00;99.90
32728;DHT22;55292;51.844;19.246;2022-11-13T05:53:34;7.10;99.90
32728;DHT22;55292;51.844;19.246;2022-11-13T05:58:57;7.10;99.90
32728;DHT22;55292;51.844;19.246;2022-11-13T06:04:19;7.20;99.90
32728;DHT22;55292;51.844;19.246;2022-11-13T06:09:40;7.20;99.90
32728;DHT22;55292;51.844;19.246;2022-11-13T06:15:01;7.20;99.90
32728;DHT22;55292;51.844;19.246;2022-11-13T06:20:22;7.10;99.90
32728;DHT22;55292;51.844;19.246;2022-11-13T06:25:43;7.10;99.90
32728;DHT22;55292;51.844;19.246;2022-11-13T06:31:07;7.00;99.90
32728;DHT22;55292;51.844;19.246;2022-11-13T06:36:31;6.80;99.90
32728;DHT22;55292;51.844;19.246;2022-11-13T06:41:52;6.80;99.90
32728;DHT22;55292;51.844;19.246;2022-11-13T06:47:14;6.90;99.90
32728;DHT22;55292;51.844;19.246;2022-11-13T06:52:35;6.80;99.90
32728;DHT22;55292;51.844;19.246;2022-11-13T06:57:56;7.00;99.90
32728;DHT22;55292;51.844;19.246;2022-11-13T07:03:22;7.10;99.90
32728;DHT22;55292;51.844;19.246;2022-11-13T07:08:45;7.20;99.90
32728;DHT22;55292;51.844;19.246;2022-11-13T07:14:07;7.30;99.90
32728;DHT22;55292;51.844;19.246;2022-11-13T07:19:29;7.40;99.90
32728;DHT22;55292;51.844;19.246;2022-11-13T07:24:50;7.40;99.90
32728;DHT22;55292;51.844;19.246;2022-11-13T07:30:12;7.40;99.90
32728;DHT22;55292;51.844;19.246;2022-11-13T07:35:33;7.50;99.90
32728;DHT22;55292;51.844;19.246;2022-11-13T07:40:56;7.50;99.90
32728;DHT22;55292;51.844;19.246;2022-11-13T07:46:17;7.60;99.90
32728;DHT22;55292;51.844;19.246;2022-11-13T07:51:39;7.60;99.90
32728;DHT22;55292;51.844;19.246;2022-11-13T07:57:00;7.60;99.90
32728;DHT22;55292;51.844;19.246;2022-11-13T08:02:21;7.60;99.90
32728;DHT22;55292;51.844;19.246;2022-11-13T08:07:47;7.60;99.90
32728;DHT22;55292;51.844;19.246;2022-11-13T08:13:11;7.50;99.90
32728;DHT22;55292;51.844;19.246;2022-11-13T08:18:33;7.50;99.90
32728;DHT22;55292;51.844;19.246;2022-11-13T08:23:54;7.50;99.90
32728;DHT22;55292;51.844;19.246;2022-11-13T08:29:15;7.60;99.90
32728;DHT22;55292;51.844;19.246;2022-11-13T08:34:36;7.60;99.90
32728;DHT22;55292;51.844;19.246;2022-11-13T08:39:57;7.70;99.90
32728;DHT22;55292;51.844;19.246;2022-11-13T08:45:18;7.70;99.90
32728;DHT22;55292;51.844;19.246;2022-11-13T08:50:40;7.90;99.90
32728;DHT22;55292;51.844;19.246;2022-11-13T08:56:01;8.20;99.90
32728;DHT22;55292;51.844;19.246;2022-11-13T09:01:23;8.30;99.90
32728;DHT22;55292;51.844;19.246;2022-11-13T09:06:44;8.40;99.90
32728;DHT22;55292;51.844;19.246;2022-11-13T09:12:05;8.30;99.90
32728;DHT22;55292;51.844;19.246;2022-11-13T09:17:26;8.20;99.90
32728;DHT22;55292;51.844;19.246;2022-11-13T09:22:47;8.30;99.90
32728;DHT22;55292;51.844;19.246;2022-11-13T09:28:09;8.10;99.90
32728;DHT22;55292;51.844;19.246;2022-11-13T09:33:31;8.10;99.90
32728;DHT22;55292;51.844;19.246;2022-11-13T09:38:52;8.00;99.90
32728;DHT22;55292;51.844;19.246;2022-11-13T09:44:25;8.10;99.90
32728;DHT22;55292;51.844;19.246;2022-11-13T09:55:29;7.90;99.90
32728;DHT22;55292;51.844;19.246;2022-11-13T10:00:52;8.00;99.90
32728;DHT22;55292;51.844;19.246;2022-11-13T10:06:46;8.10;99.90
32728;DHT22;55292;51.844;19.246;2022-11-13T10:12:10;8.10;99.90
32728;DHT22;55292;51.844;19.246;2022-11-13T10:18:01;8.10;99.90
32728;DHT22;55292;51.844;19.246;2022-11-13T10:23:31;7.90;99.90
32728;DHT22;55292;51.844;19.246;2022-11-13T10:29:26;7.80;99.90
32728;DHT22;55292;51.844;19.246;2022-11-13T10:35:00;7.60;99.90
32728;DHT22;55292;51.844;19.246;2022-11-13T10:40:27;7.50;99.90
32728;DHT22;55292;51.844;19.246;2022-11-13T10:45:57;7.40;99.90
32728;DHT22;55292;51.844;19.246;2022-11-13T10:51:25;7.30;99.90
32728;DHT22;55292;51.844;19.246;2022-11-13T10:56:59;7.20;99.90
32728;DHT22;55292;51.844;19.246;2022-11-13T11:02:24;7.30;99.90
32728;DHT22;55292;51.844;19.246;2022-11-13T11:07:45;7.30;99.90
32728;DHT22;55292;51.844;19.246;2022-11-13T11:13:18;7.30;99.90
32728;DHT22;55292;51.844;19.246;2022-11-13T11:18:47;7.40;99.90
32728;DHT22;55292;51.844;19.246;2022-11-13T11:24:43;7.40;99.90
32728;DHT22;55292;51.844;19.246;2022-11-13T11:30:19;7.50;99.90
32728;DHT22;55292;51.844;19.246;2022-11-13T11:36:01;7.40;99.90
32728;DHT22;55292;51.844;19.246;2022-11-13T11:41:32;7.40;99.90
32728;DHT22;55292;51.844;19.246;2022-11-13T11:46:55;7.30;99.90
32728;DHT22;55292;51.844;19.246;2022-11-13T12:09:28;7.30;99.90
32728;DHT22;55292;51.844;19.246;2022-11-13T12:15:10;7.30;99.90
32728;DHT22;55292;51.844;19.246;2022-11-13T12:26:25;7.50;99.90
32728;DHT22;55292;51.844;19.246;2022-11-13T12:37:42;7.30;99.90
32728;DHT22;55292;51.844;19.246;2022-11-13T12:48:47;7.40;99.90
32728;DHT22;55292;51.844;19.246;2022-11-13T12:54:09;7.30;99.90
32728;DHT22;55292;51.844;19.246;2022-11-13T12:59:35;7.30;99.90
32728;DHT22;55292;51.844;19.246;2022-11-13T13:15:55;7.30;99.90
32728;DHT22;55292;51.844;19.246;2022-11-13T13:21:19;7.30;99.90
32728;DHT22;55292;51.844;19.246;2022-11-13T13:26:45;7.30;99.90
32728;DHT22;55292;51.844;19.246;2022-11-13T13:32:47;7.20;99.90
32728;DHT22;55292;51.844;19.246;2022-11-13T13:38:36;7.20;99.90
32728;DHT22;55292;51.844;19.246;2022-11-13T13:49:50;6.90;99.90
32728;DHT22;55292;51.844;19.246;2022-11-13T13:55:25;7.00;99.90
32728;DHT22;55292;51.844;19.246;2022-11-13T14:00:57;6.90;99.90
32728;DHT22;55292;51.844;19.246;2022-11-13T14:06:47;6.90;99.90
32728;DHT22;55292;51.844;19.246;2022-11-13T14:12:17;6.90;99.90
32728;DHT22;55292;51.844;19.246;2022-11-13T14:17:39;6.90;99.90
32728;DHT22;55292;51.844;19.246;2022-11-13T14:23:00;6.80;99.90
32728;DHT22;55292;51.844;19.246;2022-11-13T14:28:24;6.80;99.90
32728;DHT22;55292;51.844;19.246;2022-11-13T14:33:49;6.80;99.90
32728;DHT22;55292;51.844;19.246;2022-11-13T14:39:23;6.70;99.90
32728;DHT22;55292;51.844;19.246;2022-11-13T14:44:45;6.80;99.90
32728;DHT22;55292;51.844;19.246;2022-11-13T14:50:23;6.70;99.90
32728;DHT22;55292;51.844;19.246;2022-11-13T14:55:53;6.70;99.90
32728;DHT22;55292;51.844;19.246;2022-11-13T15:01:17;6.70;99.90
32728;DHT22;55292;51.844;19.246;2022-11-13T15:06:39;6.60;99.90
32728;DHT22;55292;51.844;19.246;2022-11-13T15:12:01;6.50;99.90
32728;DHT22;55292;51.844;19.246;2022-11-13T15:17:22;6.50;99.90
32728;DHT22;55292;51.844;19.246;2022-11-13T15:22:43;6.40;99.90
32728;DHT22;55292;51.844;19.246;2022-11-13T15:28:04;6.40;99.90
32728;DHT22;55292;51.844;19.246;2022-11-13T15:33:25;6.40;99.90
32728;DHT22;55292;51.844;19.246;2022-11-13T15:38:47;6.40;99.90
32728;DHT22;55292;51.844;19.246;2022-11-13T15:44:15;6.30;99.90
32728;DHT22;55292;51.844;19.246;2022-11-13T15:49:36;6.30;99.90
32728;DHT22;55292;51.844;19.246;2022-11-13T15:55:17;6.30;99.90
32728;DHT22;55292;51.844;19.246;2022-11-13T16:00:39;6.30;99.90
32728;DHT22;55292;51.844;19.246;2022-11-13T16:06:03;6.30;99.90
32728;DHT22;55292;51.844;19.246;2022-11-13T16:11:24;6.20;99.90
32728;DHT22;55292;51.844;19.246;2022-11-13T16:16:45;6.20;99.90
32728;DHT22;55292;51.844;19.246;2022-11-13T16:22:24;6.20;99.90
32728;DHT22;55292;51.844;19.246;2022-11-13T16:27:46;6.10;99.90
32728;DHT22;55292;51.844;19.246;2022-11-13T16:33:08;6.10;99.90
32728;DHT22;55292;51.844;19.246;2022-11-13T16:38:29;6.10;99.90
32728;DHT22;55292;51.844;19.246;2022-11-13T16:43:50;6.20;99.90
32728;DHT22;55292;51.844;19.246;2022-11-13T16:49:13;6.20;99.90
32728;DHT22;55292;51.844;19.246;2022-11-13T16:54:38;6.10;99.90
32728;DHT22;55292;51.844;19.246;2022-11-13T17:00:00;5.90;99.90
32728;DHT22;55292;51.844;19.246;2022-11-13T17:05:22;5.90;99.90
32728;DHT22;55292;51.844;19.246;2022-11-13T17:10:54;5.90;99.90
32728;DHT22;55292;51.844;19.246;2022-11-13T17:16:15;6.30;99.90
32728;DHT22;55292;51.844;19.246;2022-11-13T17:21:37;6.10;99.90
32728;DHT22;55292;51.844;19.246;2022-11-13T17:27:04;5.80;99.90
32728;DHT22;55292;51.844;19.246;2022-11-13T17:32:26;5.90;99.90
32728;DHT22;55292;51.844;19.246;2022-11-13T17:37:47;5.80;99.90
32728;DHT22;55292;51.844;19.246;2022-11-13T17:43:08;5.90;99.90
32728;DHT22;55292;51.844;19.246;2022-11-13T17:48:31;5.90;99.90
32728;DHT22;55292;51.844;19.246;2022-11-13T17:53:55;6.20;99.90
32728;DHT22;55292;51.844;19.246;2022-11-13T17:59:16;6.30;99.90
32728;DHT22;55292;51.844;19.246;2022-11-13T18:04:37;6.30;99.90
32728;DHT22;55292;51.844;19.246;2022-11-13T18:09:58;6.30;99.90
32728;DHT22;55292;51.844;19.246;2022-11-13T18:15:20;6.30;99.90
32728;DHT22;55292;51.844;19.246;2022-11-13T18:20:41;6.30;99.90
32728;DHT22;55292;51.844;19.246;2022-11-13T18:26:11;6.30;99.90
32728;DHT22;55292;51.844;19.246;2022-11-13T18:31:36;6.40;99.90
32728;DHT22;55292;51.844;19.246;2022-11-13T18:36:57;6.30;99.90
32728;DHT22;55292;51.844;19.246;2022-11-13T18:42:19;6.30;99.90
32728;DHT22;55292;51.844;19.246;2022-11-13T18:47:41;6.20;99.90
32728;DHT22;55292;51.844;19.246;2022-11-13T18:53:02;6.00;99.90
32728;DHT22;55292;51.844;19.246;2022-11-13T18:58:23;6.00;99.90
32728;DHT22;55292;51.844;19.246;2022-11-13T19:03:45;6.00;99.90
32728;DHT22;55292;51.844;19.246;2022-11-13T19:09:27;6.00;99.90
32728;DHT22;55292;51.844;19.246;2022-11-13T19:14:47;6.00;99.90
32728;DHT22;55292;51.844;19.246;2022-11-13T19:20:09;6.10;99.90
32728;DHT22;55292;51.844;19.246;2022-11-13T19:25:30;6.20;99.90
32728;DHT22;55292;51.844;19.246;2022-11-13T19:30:51;6.40;99.90
32728;DHT22;55292;51.844;19.246;2022-11-13T19:36:16;6.40;99.90
32728;DHT22;55292;51.844;19.246;2022-11-13T19:41:37;6.40;99.90
32728;DHT22;55292;51.844;19.246;2022-11-13T19:46:58;6.40;99.90
32728;DHT22;55292;51.844;19.246;2022-11-13T19:52:20;6.40;99.90
32728;DHT22;55292;51.844;19.246;2022-11-13T19:57:41;6.50;99.90
32728;DHT22;55292;51.844;19.246;2022-11-13T20:03:06;6.50;99.90
32728;DHT22;55292;51.844;19.246;2022-11-13T20:08:27;6.60;99.90
32728;DHT22;55292;51.844;19.246;2022-11-13T20:13:49;6.70;99.90
32728;DHT22;55292;51.844;19.246;2022-11-13T20:19:10;6.70;99.90
32728;DHT22;55292;51.844;19.246;2022-11-13T20:24:31;6.60;99.90
32728;DHT22;55292;51.844;19.246;2022-11-13T20:30:01;6.50;99.90
32728;DHT22;55292;51.844;19.246;2022-11-13T20:35:22;6.40;99.90
32728;DHT22;55292;51.844;19.246;2022-11-13T20:40:44;6.30;99.90
32728;DHT22;55292;51.844;19.246;2022-11-13T20:46:09;6.30;99.90
32728;DHT22;55292;51.844;19.246;2022-11-13T20:51:31;6.30;99.90
32728;DHT22;55292;51.844;19.246;2022-11-13T20:56:52;6.40;99.90
32728;DHT22;55292;51.844;19.246;2022-11-13T21:02:13;6.50;99.90
32728;DHT22;55292;51.844;19.246;2022-11-13T21:07:34;6.50;99.90
32728;DHT22;55292;51.844;19.246;2022-11-13T21:12:55;6.60;99.90
32728;DHT22;55292;51.844;19.246;2022-11-13T21:18:16;6.50;99.90
32728;DHT22;55292;51.844;19.246;2022-11-13T21:23:38;6.60;99.90
32728;DHT22;55292;51.844;19.246;2022-11-13T21:28:59;6.60;99.90
32728;DHT22;55292;51.844;19.246;2022-11-13T21:34:20;6.60;99.90
32728;DHT22;55292;51.844;19.246;2022-11-13T21:39:41;6.60;99.90
32728;DHT22;55292;51.844;19.246;2022-11-13T21:45:02;6.70;99.90
32728;DHT22;55292;51.844;19.246;2022-11-13T21:50:24;6.70;99.90
32728;DHT22;55292;51.844;19.246;2022-11-13T21:55:48;6.70;99.90
32728;DHT22;55292;51.844;19.246;2022-11-13T22:01:11;6.50;99.90
32728;DHT22;55292;51.844;19.246;2022-11-13T22:06:35;6.30;99.90
32728;DHT22;55292;51.844;19.246;2022-11-13T22:11:56;6.50;99.90
32728;DHT22;55292;51.844;19.246;2022-11-13T22:17:17;6.40;99.90
32728;DHT22;55292;51.844;19.246;2022-11-13T22:22:39;6.40;99.90
32728;DHT22;55292;51.844;19.246;2022-11-13T22:28:00;6.50;99.90
32728;DHT22;55292;51.844;19.246;2022-11-13T22:33:21;6.50;99.90
32728;DHT22;55292;51.844;19.246;2022-11-13T22:38:42;6.50;99.90
32728;DHT22;55292;51.844;19.246;2022-11-13T22:44:11;6.50;99.90
32728;DHT22;55292;51.844;19.246;2022-11-13T22:49:32;6.60;99.90
32728;DHT22;55292;51.844;19.246;2022-11-13T22:54:53;6.60;99.90
32728;DHT22;55292;51.844;19.246;2022-11-13T23:00:15;6.60;99.90
32728;DHT22;55292;51.844;19.246;2022-11-13T23:05:36;6.60;99.90
32728;DHT22;55292;51.844;19.246;2022-11-13T23:10:57;6.70;99.90
32728;DHT22;55292;51.844;19.246;2022-11-13T23:16:20;6.70;99.90
32728;DHT22;55292;51.844;19.246;2022-11-13T23:21:44;6.70;99.90
32728;DHT22;55292;51.844;19.246;2022-11-13T23:27:05;6.60;99.90
32728;DHT22;55292;51.844;19.246;2022-11-13T23:32:26;6.60;99.90
32728;DHT22;55292;51.844;19.246;2022-11-13T23:37:47;6.60;99.90
32728;DHT22;55292;51.844;19.246;2022-11-13T23:43:09;6.60;99.90
32728;DHT22;55292;51.844;19.246;2022-11-13T23:48:30;6.60;99.90
32728;DHT22;55292;51.844;19.246;2022-11-13T23:53:51;6.60;99.90
32728;DHT22;55292;51.844;19.246;2022-11-13T23:59:12;6.60;99.90
